sensor_id;sensor_type;location;lat;lon;timestamp;P1;durP1;ratioP1;P2;durP2;ratioP2
68386;SDS011;55338;43.062;25.624;2022-09-13T00:00:47;5.83;;;2.40;;
68386;SDS011;55338;43.062;25.624;2022-09-13T00:03:13;4.10;;;2.53;;
68386;SDS011;55338;43.062;25.624;2022-09-13T00:05:39;4.85;;;2.83;;
68386;SDS011;55338;43.062;25.624;2022-09-13T00:08:05;5.50;;;2.80;;
68386;SDS011;55338;43.062;25.624;2022-09-13T00:10:38;8.10;;;3.00;;
68386;SDS011;55338;43.062;25.624;2022-09-13T00:13:05;4.25;;;2.65;;
68386;SDS011;55338;43.062;25.624;2022-09-13T00:15:32;5.45;;;2.80;;
68386;SDS011;55338;43.062;25.624;2022-09-13T00:17:58;4.88;;;2.90;;
68386;SDS011;55338;43.062;25.624;2022-09-13T00:20:33;7.07;;;2.97;;
68386;SDS011;55338;43.062;25.624;2022-09-13T00:22:59;4.78;;;2.80;;
68386;SDS011;55338;43.062;25.624;2022-09-13T00:25:25;5.90;;;3.03;;
68386;SDS011;55338;43.062;25.624;2022-09-13T00:27:50;6.75;;;2.97;;
68386;SDS011;55338;43.062;25.624;2022-09-13T00:30:16;6.43;;;3.50;;
68386;SDS011;55338;43.062;25.624;2022-09-13T00:32:42;6.28;;;2.90;;
68386;SDS011;55338;43.062;25.624;2022-09-13T00:35:08;6.18;;;2.90;;
68386;SDS011;55338;43.062;25.624;2022-09-13T00:37:34;5.87;;;3.27;;
68386;SDS011;55338;43.062;25.624;2022-09-13T00:40:00;5.88;;;2.90;;
68386;SDS011;55338;43.062;25.624;2022-09-13T00:42:27;6.10;;;3.10;;
68386;SDS011;55338;43.062;25.624;2022-09-13T00:50:26;8.77;;;3.42;;
68386;SDS011;55338;43.062;25.624;2022-09-13T00:55:32;9.40;;;3.08;;
68386;SDS011;55338;43.062;25.624;2022-09-13T00:58:07;5.97;;;3.47;;
68386;SDS011;55338;43.062;25.624;2022-09-13T01:00:40;6.97;;;2.97;;
68386;SDS011;55338;43.062;25.624;2022-09-13T01:03:07;6.82;;;2.80;;
68386;SDS011;55338;43.062;25.624;2022-09-13T01:05:37;6.45;;;3.40;;
68386;SDS011;55338;43.062;25.624;2022-09-13T01:08:17;6.80;;;3.25;;
68386;SDS011;55338;43.062;25.624;2022-09-13T01:10:47;6.07;;;3.20;;
68386;SDS011;55338;43.062;25.624;2022-09-13T01:13:17;5.60;;;3.10;;
68386;SDS011;55338;43.062;25.624;2022-09-13T01:15:46;6.82;;;3.00;;
68386;SDS011;55338;43.062;25.624;2022-09-13T01:46:08;6.68;;;3.22;;
68386;SDS011;55338;43.062;25.624;2022-09-13T01:54:02;6.27;;;3.67;;
68386;SDS011;55338;43.062;25.624;2022-09-13T01:56:41;7.25;;;3.20;;
68386;SDS011;55338;43.062;25.624;2022-09-13T01:59:18;6.75;;;3.33;;
68386;SDS011;55338;43.062;25.624;2022-09-13T02:02:14;7.43;;;3.35;;
68386;SDS011;55338;43.062;25.624;2022-09-13T02:04:49;5.10;;;3.35;;
68386;SDS011;55338;43.062;25.624;2022-09-13T02:07:41;5.60;;;3.60;;
68386;SDS011;55338;43.062;25.624;2022-09-13T02:10:20;6.50;;;3.63;;
68386;SDS011;55338;43.062;25.624;2022-09-13T02:12:52;6.25;;;3.63;;
68386;SDS011;55338;43.062;25.624;2022-09-13T02:15:23;7.80;;;3.85;;
68386;SDS011;55338;43.062;25.624;2022-09-13T02:18:08;6.20;;;3.80;;
68386;SDS011;55338;43.062;25.624;2022-09-13T02:20:40;8.20;;;3.77;;
68386;SDS011;55338;43.062;25.624;2022-09-13T02:23:09;6.15;;;3.47;;
68386;SDS011;55338;43.062;25.624;2022-09-13T02:25:43;7.35;;;3.88;;
68386;SDS011;55338;43.062;25.624;2022-09-13T02:28:14;8.75;;;3.75;;
68386;SDS011;55338;43.062;25.624;2022-09-13T02:30:46;8.75;;;3.13;;
68386;SDS011;55338;43.062;25.624;2022-09-13T02:33:17;5.87;;;3.50;;
68386;SDS011;55338;43.062;25.624;2022-09-13T02:35:50;6.45;;;3.35;;
68386;SDS011;55338;43.062;25.624;2022-09-13T02:38:22;7.13;;;3.53;;
68386;SDS011;55338;43.062;25.624;2022-09-13T02:41:06;7.10;;;3.50;;
68386;SDS011;55338;43.062;25.624;2022-09-13T02:43:41;6.90;;;3.50;;
68386;SDS011;55338;43.062;25.624;2022-09-13T02:51:39;5.82;;;3.53;;
68386;SDS011;55338;43.062;25.624;2022-09-13T02:54:25;9.30;;;3.78;;
68386;SDS011;55338;43.062;25.624;2022-09-13T02:57:08;7.85;;;3.80;;
68386;SDS011;55338;43.062;25.624;2022-09-13T02:59:55;6.67;;;3.60;;
68386;SDS011;55338;43.062;25.624;2022-09-13T03:02:22;11.80;;;3.58;;
68386;SDS011;55338;43.062;25.624;2022-09-13T03:04:51;6.82;;;3.40;;
68386;SDS011;55338;43.062;25.624;2022-09-13T03:07:17;8.68;;;3.42;;
68386;SDS011;55338;43.062;25.624;2022-09-13T03:10:16;8.23;;;3.60;;
68386;SDS011;55338;43.062;25.624;2022-09-13T03:15:12;8.75;;;3.60;;
68386;SDS011;55338;43.062;25.624;2022-09-13T03:21:05;6.88;;;3.70;;
68386;SDS011;55338;43.062;25.624;2022-09-13T03:29:23;6.53;;;3.17;;
68386;SDS011;55338;43.062;25.624;2022-09-13T03:37:26;10.27;;;3.90;;
68386;SDS011;55338;43.062;25.624;2022-09-13T03:40:14;8.13;;;3.40;;
68386;SDS011;55338;43.062;25.624;2022-09-13T03:42:57;9.20;;;3.60;;
68386;SDS011;55338;43.062;25.624;2022-09-13T03:45:30;9.45;;;3.40;;
68386;SDS011;55338;43.062;25.624;2022-09-13T03:48:01;6.97;;;3.38;;
68386;SDS011;55338;43.062;25.624;2022-09-13T03:50:29;9.68;;;4.00;;
68386;SDS011;55338;43.062;25.624;2022-09-13T03:52:59;13.83;;;4.00;;
68386;SDS011;55338;43.062;25.624;2022-09-13T03:55:30;7.47;;;3.42;;
68386;SDS011;55338;43.062;25.624;2022-09-13T03:57:58;7.80;;;3.83;;
68386;SDS011;55338;43.062;25.624;2022-09-13T04:00:24;6.03;;;3.93;;
68386;SDS011;55338;43.062;25.624;2022-09-13T04:02:49;10.32;;;3.85;;
68386;SDS011;55338;43.062;25.624;2022-09-13T04:05:15;10.40;;;3.95;;
68386;SDS011;55338;43.062;25.624;2022-09-13T04:07:41;7.20;;;3.40;;
68386;SDS011;55338;43.062;25.624;2022-09-13T04:10:07;8.33;;;3.60;;
68386;SDS011;55338;43.062;25.624;2022-09-13T04:12:34;6.63;;;3.83;;
68386;SDS011;55338;43.062;25.624;2022-09-13T04:15:00;7.07;;;3.93;;
68386;SDS011;55338;43.062;25.624;2022-09-13T04:17:26;15.05;;;4.45;;
68386;SDS011;55338;43.062;25.624;2022-09-13T04:19:52;14.18;;;4.07;;
68386;SDS011;55338;43.062;25.624;2022-09-13T04:22:17;9.53;;;4.10;;
68386;SDS011;55338;43.062;25.624;2022-09-13T04:24:43;11.35;;;4.70;;
68386;SDS011;55338;43.062;25.624;2022-09-13T04:27:09;14.13;;;4.23;;
68386;SDS011;55338;43.062;25.624;2022-09-13T04:29:36;12.63;;;4.32;;
68386;SDS011;55338;43.062;25.624;2022-09-13T04:32:02;10.15;;;4.00;;
68386;SDS011;55338;43.062;25.624;2022-09-13T04:34:28;12.85;;;3.70;;
68386;SDS011;55338;43.062;25.624;2022-09-13T04:36:54;13.70;;;4.70;;
68386;SDS011;55338;43.062;25.624;2022-09-13T04:39:20;9.15;;;4.43;;
68386;SDS011;55338;43.062;25.624;2022-09-13T04:41:46;12.15;;;4.10;;
68386;SDS011;55338;43.062;25.624;2022-09-13T04:44:14;13.55;;;4.18;;
68386;SDS011;55338;43.062;25.624;2022-09-13T04:46:41;17.33;;;4.87;;
68386;SDS011;55338;43.062;25.624;2022-09-13T04:49:10;10.90;;;4.65;;
68386;SDS011;55338;43.062;25.624;2022-09-13T04:51:36;12.15;;;4.97;;
68386;SDS011;55338;43.062;25.624;2022-09-13T04:54:01;12.83;;;4.20;;
68386;SDS011;55338;43.062;25.624;2022-09-13T04:56:27;8.20;;;4.07;;
68386;SDS011;55338;43.062;25.624;2022-09-13T04:58:53;11.73;;;3.70;;
68386;SDS011;55338;43.062;25.624;2022-09-13T05:01:20;13.23;;;4.37;;
68386;SDS011;55338;43.062;25.624;2022-09-13T05:03:47;16.90;;;4.15;;
68386;SDS011;55338;43.062;25.624;2022-09-13T05:06:15;25.75;;;5.30;;
68386;SDS011;55338;43.062;25.624;2022-09-13T05:08:51;11.00;;;4.78;;
68386;SDS011;55338;43.062;25.624;2022-09-13T05:11:19;11.55;;;4.55;;
68386;SDS011;55338;43.062;25.624;2022-09-13T05:13:52;11.20;;;4.97;;
68386;SDS011;55338;43.062;25.624;2022-09-13T05:16:20;13.68;;;4.57;;
68386;SDS011;55338;43.062;25.624;2022-09-13T05:18:48;13.25;;;4.78;;
68386;SDS011;55338;43.062;25.624;2022-09-13T05:21:14;14.57;;;4.75;;
68386;SDS011;55338;43.062;25.624;2022-09-13T05:23:40;19.73;;;5.10;;
68386;SDS011;55338;43.062;25.624;2022-09-13T05:26:06;15.05;;;5.32;;
68386;SDS011;55338;43.062;25.624;2022-09-13T05:28:32;17.52;;;4.78;;
68386;SDS011;55338;43.062;25.624;2022-09-13T05:31:01;19.35;;;5.13;;
68386;SDS011;55338;43.062;25.624;2022-09-13T05:33:30;19.27;;;6.00;;
68386;SDS011;55338;43.062;25.624;2022-09-13T05:35:57;12.45;;;5.22;;
68386;SDS011;55338;43.062;25.624;2022-09-13T05:38:23;14.57;;;5.82;;
68386;SDS011;55338;43.062;25.624;2022-09-13T05:40:53;18.53;;;5.57;;
68386;SDS011;55338;43.062;25.624;2022-09-13T05:43:21;15.90;;;6.43;;
68386;SDS011;55338;43.062;25.624;2022-09-13T05:45:47;13.27;;;6.78;;
68386;SDS011;55338;43.062;25.624;2022-09-13T05:48:13;13.65;;;6.05;;
68386;SDS011;55338;43.062;25.624;2022-09-13T05:50:39;33.33;;;7.57;;
68386;SDS011;55338;43.062;25.624;2022-09-13T05:53:05;15.02;;;8.13;;
68386;SDS011;55338;43.062;25.624;2022-09-13T05:55:31;16.67;;;8.85;;
68386;SDS011;55338;43.062;25.624;2022-09-13T05:57:58;26.70;;;11.25;;
68386;SDS011;55338;43.062;25.624;2022-09-13T06:00:26;21.73;;;10.93;;
68386;SDS011;55338;43.062;25.624;2022-09-13T06:02:52;30.00;;;15.00;;
68386;SDS011;55338;43.062;25.624;2022-09-13T06:05:18;24.77;;;12.27;;
68386;SDS011;55338;43.062;25.624;2022-09-13T06:07:43;14.33;;;6.57;;
68386;SDS011;55338;43.062;25.624;2022-09-13T06:10:09;26.50;;;7.30;;
68386;SDS011;55338;43.062;25.624;2022-09-13T06:12:36;15.50;;;6.97;;
68386;SDS011;55338;43.062;25.624;2022-09-13T06:15:02;13.07;;;4.43;;
68386;SDS011;55338;43.062;25.624;2022-09-13T06:17:28;12.13;;;5.68;;
68386;SDS011;55338;43.062;25.624;2022-09-13T06:19:54;15.23;;;5.15;;
68386;SDS011;55338;43.062;25.624;2022-09-13T06:22:21;11.95;;;4.10;;
68386;SDS011;55338;43.062;25.624;2022-09-13T06:24:47;7.20;;;4.13;;
68386;SDS011;55338;43.062;25.624;2022-09-13T06:27:13;10.48;;;4.55;;
68386;SDS011;55338;43.062;25.624;2022-09-13T06:29:38;7.75;;;3.45;;
68386;SDS011;55338;43.062;25.624;2022-09-13T06:32:04;12.37;;;4.50;;
68386;SDS011;55338;43.062;25.624;2022-09-13T06:34:30;9.93;;;3.90;;
68386;SDS011;55338;43.062;25.624;2022-09-13T06:36:56;13.27;;;4.63;;
68386;SDS011;55338;43.062;25.624;2022-09-13T06:39:21;8.30;;;4.35;;
68386;SDS011;55338;43.062;25.624;2022-09-13T06:41:47;9.93;;;2.77;;
68386;SDS011;55338;43.062;25.624;2022-09-13T06:44:13;12.15;;;2.55;;
68386;SDS011;55338;43.062;25.624;2022-09-13T06:46:39;16.00;;;6.10;;
68386;SDS011;55338;43.062;25.624;2022-09-13T06:49:05;9.55;;;5.15;;
68386;SDS011;55338;43.062;25.624;2022-09-13T06:51:32;13.27;;;3.70;;
68386;SDS011;55338;43.062;25.624;2022-09-13T06:53:59;9.20;;;3.38;;
68386;SDS011;55338;43.062;25.624;2022-09-13T06:56:28;10.43;;;3.08;;
68386;SDS011;55338;43.062;25.624;2022-09-13T06:59:00;7.43;;;2.55;;
68386;SDS011;55338;43.062;25.624;2022-09-13T07:01:30;11.80;;;4.10;;
68386;SDS011;55338;43.062;25.624;2022-09-13T07:04:03;5.93;;;2.20;;
68386;SDS011;55338;43.062;25.624;2022-09-13T07:06:34;6.90;;;3.53;;
68386;SDS011;55338;43.062;25.624;2022-09-13T07:09:02;9.48;;;3.20;;
68386;SDS011;55338;43.062;25.624;2022-09-13T07:11:30;5.57;;;2.50;;
68386;SDS011;55338;43.062;25.624;2022-09-13T07:13:57;8.27;;;2.85;;
68386;SDS011;55338;43.062;25.624;2022-09-13T07:16:29;12.53;;;2.50;;
68386;SDS011;55338;43.062;25.624;2022-09-13T07:18:57;4.45;;;2.17;;
68386;SDS011;55338;43.062;25.624;2022-09-13T07:21:24;5.88;;;2.72;;
68386;SDS011;55338;43.062;25.624;2022-09-13T07:23:51;6.53;;;2.50;;
68386;SDS011;55338;43.062;25.624;2022-09-13T07:26:18;5.18;;;2.30;;
68386;SDS011;55338;43.062;25.624;2022-09-13T07:28:45;4.53;;;2.33;;
68386;SDS011;55338;43.062;25.624;2022-09-13T07:31:15;4.35;;;2.17;;
68386;SDS011;55338;43.062;25.624;2022-09-13T07:33:42;11.30;;;2.70;;
68386;SDS011;55338;43.062;25.624;2022-09-13T07:36:10;12.13;;;2.85;;
68386;SDS011;55338;43.062;25.624;2022-09-13T07:38:36;6.28;;;2.28;;
68386;SDS011;55338;43.062;25.624;2022-09-13T07:41:05;3.83;;;2.17;;
68386;SDS011;55338;43.062;25.624;2022-09-13T07:43:33;5.15;;;2.20;;
68386;SDS011;55338;43.062;25.624;2022-09-13T07:46:12;4.22;;;2.55;;
68386;SDS011;55338;43.062;25.624;2022-09-13T07:48:40;5.20;;;2.67;;
68386;SDS011;55338;43.062;25.624;2022-09-13T07:53:38;5.77;;;2.60;;
68386;SDS011;55338;43.062;25.624;2022-09-13T07:58:33;5.35;;;3.08;;
68386;SDS011;55338;43.062;25.624;2022-09-13T08:03:37;4.43;;;2.53;;
68386;SDS011;55338;43.062;25.624;2022-09-13T08:06:03;4.20;;;2.00;;
68386;SDS011;55338;43.062;25.624;2022-09-13T08:08:30;3.83;;;1.92;;
68386;SDS011;55338;43.062;25.624;2022-09-13T08:10:57;3.50;;;2.22;;
68386;SDS011;55338;43.062;25.624;2022-09-13T08:13:23;4.15;;;2.20;;
68386;SDS011;55338;43.062;25.624;2022-09-13T08:15:49;4.90;;;2.40;;
68386;SDS011;55338;43.062;25.624;2022-09-13T08:18:15;7.07;;;2.10;;
68386;SDS011;55338;43.062;25.624;2022-09-13T08:20:42;7.07;;;1.85;;
68386;SDS011;55338;43.062;25.624;2022-09-13T08:23:09;3.75;;;2.35;;
68386;SDS011;55338;43.062;25.624;2022-09-13T08:25:36;3.17;;;2.10;;
68386;SDS011;55338;43.062;25.624;2022-09-13T08:30:32;6.82;;;2.00;;
68386;SDS011;55338;43.062;25.624;2022-09-13T08:33:00;3.95;;;2.20;;
68386;SDS011;55338;43.062;25.624;2022-09-13T08:35:26;3.47;;;2.20;;
68386;SDS011;55338;43.062;25.624;2022-09-13T08:37:53;5.40;;;2.20;;
68386;SDS011;55338;43.062;25.624;2022-09-13T08:40:20;8.40;;;2.20;;
68386;SDS011;55338;43.062;25.624;2022-09-13T08:43:11;4.55;;;2.03;;
68386;SDS011;55338;43.062;25.624;2022-09-13T08:46:01;3.53;;;2.00;;
68386;SDS011;55338;43.062;25.624;2022-09-13T08:48:34;3.90;;;1.90;;
68386;SDS011;55338;43.062;25.624;2022-09-13T08:51:04;4.30;;;2.42;;
68386;SDS011;55338;43.062;25.624;2022-09-13T08:53:42;3.13;;;1.90;;
68386;SDS011;55338;43.062;25.624;2022-09-13T08:56:12;3.05;;;1.90;;
68386;SDS011;55338;43.062;25.624;2022-09-13T08:59:14;4.97;;;2.03;;
68386;SDS011;55338;43.062;25.624;2022-09-13T09:07:27;3.87;;;1.93;;
68386;SDS011;55338;43.062;25.624;2022-09-13T09:10:05;3.28;;;2.08;;
68386;SDS011;55338;43.062;25.624;2022-09-13T09:12:45;3.20;;;2.00;;
68386;SDS011;55338;43.062;25.624;2022-09-13T09:15:30;4.78;;;1.92;;
68386;SDS011;55338;43.062;25.624;2022-09-13T09:18:12;3.00;;;1.90;;
68386;SDS011;55338;43.062;25.624;2022-09-13T09:20:59;17.23;;;3.63;;
68386;SDS011;55338;43.062;25.624;2022-09-13T09:26:18;10.07;;;3.65;;
68386;SDS011;55338;43.062;25.624;2022-09-13T09:28:59;9.80;;;2.83;;
68386;SDS011;55338;43.062;25.624;2022-09-13T09:39:26;4.43;;;2.30;;
68386;SDS011;55338;43.062;25.624;2022-09-13T09:41:57;6.25;;;2.28;;
68386;SDS011;55338;43.062;25.624;2022-09-13T09:44:27;3.67;;;2.20;;
68386;SDS011;55338;43.062;25.624;2022-09-13T09:55:25;8.80;;;2.78;;
68386;SDS011;55338;43.062;25.624;2022-09-13T09:57:56;4.60;;;2.75;;
68386;SDS011;55338;43.062;25.624;2022-09-13T10:00:52;14.23;;;2.70;;
68386;SDS011;55338;43.062;25.624;2022-09-13T10:03:23;7.93;;;2.28;;
68386;SDS011;55338;43.062;25.624;2022-09-13T10:06:05;7.47;;;2.03;;
68386;SDS011;55338;43.062;25.624;2022-09-13T10:08:35;6.78;;;2.90;;
68386;SDS011;55338;43.062;25.624;2022-09-13T10:11:04;7.65;;;2.00;;
68386;SDS011;55338;43.062;25.624;2022-09-13T10:13:31;6.73;;;3.40;;
68386;SDS011;55338;43.062;25.624;2022-09-13T10:18:43;5.60;;;2.88;;
68386;SDS011;55338;43.062;25.624;2022-09-13T10:23:46;7.47;;;2.28;;
68386;SDS011;55338;43.062;25.624;2022-09-13T10:26:17;16.10;;;3.20;;
68386;SDS011;55338;43.062;25.624;2022-09-13T10:31:17;4.85;;;2.40;;
68386;SDS011;55338;43.062;25.624;2022-09-13T10:33:52;6.70;;;2.10;;
68386;SDS011;55338;43.062;25.624;2022-09-13T10:36:24;3.35;;;1.75;;
68386;SDS011;55338;43.062;25.624;2022-09-13T10:39:06;3.42;;;1.90;;
68386;SDS011;55338;43.062;25.624;2022-09-13T10:41:41;4.25;;;2.00;;
68386;SDS011;55338;43.062;25.624;2022-09-13T10:44:21;4.20;;;1.90;;
68386;SDS011;55338;43.062;25.624;2022-09-13T10:46:48;7.17;;;1.90;;
68386;SDS011;55338;43.062;25.624;2022-09-13T10:51:59;5.60;;;2.20;;
68386;SDS011;55338;43.062;25.624;2022-09-13T10:54:25;3.63;;;1.95;;
68386;SDS011;55338;43.062;25.624;2022-09-13T10:56:53;4.65;;;1.90;;
68386;SDS011;55338;43.062;25.624;2022-09-13T10:59:23;23.33;;;3.23;;
68386;SDS011;55338;43.062;25.624;2022-09-13T11:10:44;3.75;;;2.83;;
68386;SDS011;55338;43.062;25.624;2022-09-13T11:16:49;11.35;;;2.40;;
68386;SDS011;55338;43.062;25.624;2022-09-13T11:49:59;7.37;;;2.40;;
68386;SDS011;55338;43.062;25.624;2022-09-13T11:58:11;10.32;;;2.58;;
68386;SDS011;55338;43.062;25.624;2022-09-13T12:00:42;8.48;;;3.40;;
68386;SDS011;55338;43.062;25.624;2022-09-13T12:11:44;8.13;;;2.30;;
68386;SDS011;55338;43.062;25.624;2022-09-13T12:14:18;6.03;;;2.10;;
68386;SDS011;55338;43.062;25.624;2022-09-13T12:16:48;3.67;;;2.10;;
68386;SDS011;55338;43.062;25.624;2022-09-13T12:19:30;11.85;;;3.55;;
68386;SDS011;55338;43.062;25.624;2022-09-13T12:22:13;10.52;;;2.50;;
68386;SDS011;55338;43.062;25.624;2022-09-13T12:24:51;11.50;;;2.47;;
68386;SDS011;55338;43.062;25.624;2022-09-13T12:30:23;18.37;;;3.00;;
68386;SDS011;55338;43.062;25.624;2022-09-13T12:32:57;8.40;;;2.38;;
68386;SDS011;55338;43.062;25.624;2022-09-13T12:38:16;2.78;;;1.70;;
68386;SDS011;55338;43.062;25.624;2022-09-13T12:49:38;7.93;;;2.20;;
68386;SDS011;55338;43.062;25.624;2022-09-13T12:52:22;7.32;;;1.75;;
68386;SDS011;55338;43.062;25.624;2022-09-13T13:03:30;14.05;;;3.80;;
68386;SDS011;55338;43.062;25.624;2022-09-13T13:06:18;5.60;;;2.75;;
68386;SDS011;55338;43.062;25.624;2022-09-13T13:08:55;6.53;;;1.57;;
68386;SDS011;55338;43.062;25.624;2022-09-13T13:11:25;8.35;;;2.08;;
68386;SDS011;55338;43.062;25.624;2022-09-13T13:14:04;6.47;;;2.10;;
68386;SDS011;55338;43.062;25.624;2022-09-13T13:16:37;5.82;;;2.15;;
68386;SDS011;55338;43.062;25.624;2022-09-13T13:21:53;7.10;;;3.57;;
68386;SDS011;55338;43.062;25.624;2022-09-13T13:29:16;4.83;;;2.40;;
68386;SDS011;55338;43.062;25.624;2022-09-13T13:52:39;4.00;;;1.85;;
68386;SDS011;55338;43.062;25.624;2022-09-13T13:58:21;3.90;;;1.85;;
68386;SDS011;55338;43.062;25.624;2022-09-13T14:00:52;4.43;;;1.63;;
68386;SDS011;55338;43.062;25.624;2022-09-13T14:05:59;5.25;;;3.03;;
68386;SDS011;55338;43.062;25.624;2022-09-13T14:19:37;6.65;;;2.65;;
68386;SDS011;55338;43.062;25.624;2022-09-13T14:22:12;4.22;;;2.10;;
68386;SDS011;55338;43.062;25.624;2022-09-13T14:27:25;5.90;;;2.17;;
68386;SDS011;55338;43.062;25.624;2022-09-13T14:29:54;8.88;;;2.08;;
68386;SDS011;55338;43.062;25.624;2022-09-13T14:32:23;10.07;;;2.35;;
68386;SDS011;55338;43.062;25.624;2022-09-13T14:34:55;4.80;;;1.90;;
68386;SDS011;55338;43.062;25.624;2022-09-13T14:37:30;4.85;;;2.00;;
68386;SDS011;55338;43.062;25.624;2022-09-13T14:42:36;3.97;;;1.80;;
68386;SDS011;55338;43.062;25.624;2022-09-13T14:45:04;4.82;;;1.65;;
68386;SDS011;55338;43.062;25.624;2022-09-13T14:47:41;6.97;;;2.50;;
68386;SDS011;55338;43.062;25.624;2022-09-13T14:50:19;6.97;;;2.00;;
68386;SDS011;55338;43.062;25.624;2022-09-13T14:52:57;5.20;;;1.60;;
68386;SDS011;55338;43.062;25.624;2022-09-13T14:55:30;6.18;;;2.15;;
68386;SDS011;55338;43.062;25.624;2022-09-13T14:58:22;7.07;;;3.72;;
68386;SDS011;55338;43.062;25.624;2022-09-13T15:01:15;10.63;;;3.25;;
68386;SDS011;55338;43.062;25.624;2022-09-13T15:03:45;12.60;;;3.65;;
68386;SDS011;55338;43.062;25.624;2022-09-13T15:06:19;7.80;;;2.73;;
68386;SDS011;55338;43.062;25.624;2022-09-13T15:08:50;11.07;;;2.80;;
68386;SDS011;55338;43.062;25.624;2022-09-13T15:11:28;5.82;;;2.63;;
68386;SDS011;55338;43.062;25.624;2022-09-13T15:16:56;11.13;;;3.00;;
68386;SDS011;55338;43.062;25.624;2022-09-13T15:19:29;13.83;;;2.67;;
68386;SDS011;55338;43.062;25.624;2022-09-13T15:22:04;3.58;;;1.65;;
68386;SDS011;55338;43.062;25.624;2022-09-13T15:24:36;5.72;;;1.73;;
68386;SDS011;55338;43.062;25.624;2022-09-13T15:27:15;7.28;;;2.20;;
68386;SDS011;55338;43.062;25.624;2022-09-13T15:29:50;3.40;;;1.95;;
68386;SDS011;55338;43.062;25.624;2022-09-13T15:32:19;7.77;;;2.00;;
68386;SDS011;55338;43.062;25.624;2022-09-13T15:34:56;6.30;;;1.88;;
68386;SDS011;55338;43.062;25.624;2022-09-13T15:37:31;8.20;;;2.03;;
68386;SDS011;55338;43.062;25.624;2022-09-13T15:40:13;7.93;;;2.20;;
68386;SDS011;55338;43.062;25.624;2022-09-13T15:42:46;4.03;;;1.60;;
68386;SDS011;55338;43.062;25.624;2022-09-13T15:45:17;7.20;;;2.00;;
68386;SDS011;55338;43.062;25.624;2022-09-13T15:47:48;3.83;;;2.08;;
68386;SDS011;55338;43.062;25.624;2022-09-13T15:52:51;10.48;;;2.50;;
68386;SDS011;55338;43.062;25.624;2022-09-13T15:55:19;6.43;;;2.63;;
68386;SDS011;55338;43.062;25.624;2022-09-13T15:57:45;3.83;;;2.13;;
68386;SDS011;55338;43.062;25.624;2022-09-13T16:00:15;8.23;;;2.50;;
68386;SDS011;55338;43.062;25.624;2022-09-13T16:02:43;9.60;;;2.33;;
68386;SDS011;55338;43.062;25.624;2022-09-13T16:05:09;9.48;;;2.40;;
68386;SDS011;55338;43.062;25.624;2022-09-13T16:07:36;6.07;;;2.67;;
68386;SDS011;55338;43.062;25.624;2022-09-13T16:10:05;7.07;;;2.13;;
68386;SDS011;55338;43.062;25.624;2022-09-13T16:12:52;9.63;;;2.10;;
68386;SDS011;55338;43.062;25.624;2022-09-13T16:15:19;8.18;;;1.77;;
68386;SDS011;55338;43.062;25.624;2022-09-13T16:17:44;5.07;;;1.80;;
68386;SDS011;55338;43.062;25.624;2022-09-13T16:20:11;10.43;;;2.03;;
68386;SDS011;55338;43.062;25.624;2022-09-13T16:22:39;8.68;;;2.55;;
68386;SDS011;55338;43.062;25.624;2022-09-13T16:25:05;7.20;;;2.30;;
68386;SDS011;55338;43.062;25.624;2022-09-13T16:27:31;4.20;;;1.80;;
68386;SDS011;55338;43.062;25.624;2022-09-13T16:29:57;3.90;;;1.77;;
68386;SDS011;55338;43.062;25.624;2022-09-13T16:32:23;8.90;;;2.17;;
68386;SDS011;55338;43.062;25.624;2022-09-13T16:34:49;6.78;;;2.05;;
68386;SDS011;55338;43.062;25.624;2022-09-13T16:37:16;6.33;;;1.93;;
68386;SDS011;55338;43.062;25.624;2022-09-13T16:39:43;7.30;;;2.08;;
68386;SDS011;55338;43.062;25.624;2022-09-13T16:42:10;7.70;;;2.25;;
68386;SDS011;55338;43.062;25.624;2022-09-13T16:44:40;13.63;;;2.72;;
68386;SDS011;55338;43.062;25.624;2022-09-13T16:47:05;14.82;;;2.90;;
68386;SDS011;55338;43.062;25.624;2022-09-13T16:49:31;7.57;;;2.33;;
68386;SDS011;55338;43.062;25.624;2022-09-13T16:51:57;9.30;;;2.63;;
68386;SDS011;55338;43.062;25.624;2022-09-13T16:54:24;10.88;;;2.47;;
68386;SDS011;55338;43.062;25.624;2022-09-13T16:56:51;8.67;;;2.50;;
68386;SDS011;55338;43.062;25.624;2022-09-13T16:59:17;4.65;;;1.98;;
68386;SDS011;55338;43.062;25.624;2022-09-13T17:01:43;8.18;;;2.22;;
68386;SDS011;55338;43.062;25.624;2022-09-13T17:04:08;24.70;;;3.40;;
68386;SDS011;55338;43.062;25.624;2022-09-13T17:06:35;21.00;;;3.55;;
68386;SDS011;55338;43.062;25.624;2022-09-13T17:09:02;17.23;;;3.17;;
68386;SDS011;55338;43.062;25.624;2022-09-13T17:11:31;7.70;;;2.20;;
68386;SDS011;55338;43.062;25.624;2022-09-13T17:13:59;7.38;;;2.33;;
68386;SDS011;55338;43.062;25.624;2022-09-13T17:16:30;10.07;;;2.60;;
68386;SDS011;55338;43.062;25.624;2022-09-13T17:18:59;5.72;;;2.45;;
68386;SDS011;55338;43.062;25.624;2022-09-13T17:21:27;5.60;;;2.00;;
68386;SDS011;55338;43.062;25.624;2022-09-13T17:23:53;7.85;;;2.40;;
68386;SDS011;55338;43.062;25.624;2022-09-13T17:26:19;14.07;;;2.78;;
68386;SDS011;55338;43.062;25.624;2022-09-13T17:28:45;6.77;;;2.80;;
68386;SDS011;55338;43.062;25.624;2022-09-13T17:31:11;5.97;;;2.63;;
68386;SDS011;55338;43.062;25.624;2022-09-13T17:33:37;6.97;;;2.50;;
68386;SDS011;55338;43.062;25.624;2022-09-13T17:36:04;6.63;;;2.13;;
68386;SDS011;55338;43.062;25.624;2022-09-13T17:38:34;11.95;;;2.92;;
68386;SDS011;55338;43.062;25.624;2022-09-13T17:41:04;6.15;;;2.63;;
68386;SDS011;55338;43.062;25.624;2022-09-13T17:43:34;31.73;;;3.60;;
68386;SDS011;55338;43.062;25.624;2022-09-13T17:46:04;18.48;;;2.72;;
68386;SDS011;55338;43.062;25.624;2022-09-13T17:48:36;6.95;;;2.35;;
68386;SDS011;55338;43.062;25.624;2022-09-13T17:51:05;6.20;;;2.47;;
68386;SDS011;55338;43.062;25.624;2022-09-13T17:53:40;9.38;;;3.30;;
68386;SDS011;55338;43.062;25.624;2022-09-13T17:56:11;7.87;;;2.80;;
68386;SDS011;55338;43.062;25.624;2022-09-13T17:59:11;6.53;;;2.75;;
68386;SDS011;55338;43.062;25.624;2022-09-13T18:01:41;10.38;;;2.88;;
68386;SDS011;55338;43.062;25.624;2022-09-13T18:04:12;6.00;;;3.03;;
68386;SDS011;55338;43.062;25.624;2022-09-13T18:06:39;11.63;;;3.10;;
68386;SDS011;55338;43.062;25.624;2022-09-13T18:09:06;10.27;;;3.10;;
68386;SDS011;55338;43.062;25.624;2022-09-13T18:11:34;10.40;;;3.10;;
68386;SDS011;55338;43.062;25.624;2022-09-13T18:14:00;9.60;;;3.05;;
68386;SDS011;55338;43.062;25.624;2022-09-13T18:16:27;13.43;;;3.13;;
68386;SDS011;55338;43.062;25.624;2022-09-13T18:18:53;13.55;;;3.55;;
68386;SDS011;55338;43.062;25.624;2022-09-13T18:21:21;7.60;;;3.27;;
68386;SDS011;55338;43.062;25.624;2022-09-13T18:23:49;9.73;;;3.40;;
68386;SDS011;55338;43.062;25.624;2022-09-13T18:26:19;8.80;;;3.40;;
68386;SDS011;55338;43.062;25.624;2022-09-13T18:28:47;6.60;;;2.88;;
68386;SDS011;55338;43.062;25.624;2022-09-13T18:31:26;11.10;;;3.30;;
68386;SDS011;55338;43.062;25.624;2022-09-13T18:33:53;12.33;;;2.97;;
68386;SDS011;55338;43.062;25.624;2022-09-13T18:36:21;13.13;;;3.53;;
68386;SDS011;55338;43.062;25.624;2022-09-13T18:38:48;12.23;;;3.05;;
68386;SDS011;55338;43.062;25.624;2022-09-13T18:43:51;7.75;;;3.28;;
68386;SDS011;55338;43.062;25.624;2022-09-13T18:46:22;11.90;;;2.97;;
68386;SDS011;55338;43.062;25.624;2022-09-13T18:48:53;9.57;;;3.78;;
68386;SDS011;55338;43.062;25.624;2022-09-13T18:51:28;7.07;;;3.35;;
68386;SDS011;55338;43.062;25.624;2022-09-13T18:53:56;9.35;;;3.60;;
68386;SDS011;55338;43.062;25.624;2022-09-13T18:56:22;14.02;;;3.92;;
68386;SDS011;55338;43.062;25.624;2022-09-13T18:58:50;11.30;;;4.33;;